Wilson Algeciras — 9HA2471 — position and weather

sailwx.info

Track history (hours):
 
Tides and Currents Weather Stations Pressure Air Temp Water Temp Dewpoint Dewpoint Depression Visibility Wind Speed Wind Dir Waves Ship Positions

Wilson Algeciras

Last reported at 2016-Dec-05 12:33 UTC. Time now 2016-Dec-05 12:35 UTC.
Position N 51°27' E 003°42'.

Length 88 m; draft 4.7 m.

Type: Ship. MMSI: 248689000.

Date/timePositionNaut miles runAvg speedWind from/ knotsBaromVisibWave heightAir tempDewpointWater temp
2016-Dec-05 12:33N 51°27' E 003°42'0 0.0
2016-Dec-05 11:33N 51°27' E 003°42'0 0.0
2016-Dec-05 10:34N 51°27' E 003°42'0 0.0
2016-Dec-05 09:34N 51°27' E 003°42'0 0.0
2016-Dec-05 08:34N 51°27' E 003°42'0 0.0
2016-Dec-05 07:34N 51°27' E 003°42'0 0.0
2016-Dec-05 06:34N 51°27' E 003°42'0 0.0
2016-Dec-05 05:34N 51°27' E 003°42'0 0.0
2016-Dec-05 04:33N 51°27' E 003°42'0 0.0
2016-Dec-05 03:34N 51°27' E 003°42'0 0.0
2016-Dec-05 02:34N 51°27' E 003°42'5 4.7
2016-Dec-05 01:33N 51°26' E 003°35'1110.6
2016-Dec-05 00:34N 51°34' E 003°24'1010.0
2016-Dec-04 23:34N 51°43' E 003°16'9 9.1
2016-Dec-04 22:33N 51°52' E 003°17'1110.5
2016-Dec-04 21:33N 52°03' E 003°20'9 9.6
2016-Dec-04 20:33N 52°12' E 003°24'9 9.2
2016-Dec-04 19:31N 52°20' E 003°30'8 8.7
2016-Dec-04 18:33N 52°28' E 003°34'8 8.3
2016-Dec-04 17:34N 52°36' E 003°39'9 8.3
2016-Dec-04 16:32N 52°44' E 003°43'9 9.1
2016-Dec-04 15:32N 52°52' E 003°52'1110.3
2016-Dec-04 14:28N 52°59' E 004°04'1010.7
2016-Dec-04 13:33N 53°06' E 004°16'1110.5
2016-Dec-04 12:28N 53°16' E 004°27'1010.5
2016-Dec-04 11:31N 53°25' E 004°32'32 9.6
2016-Dec-04 08:09N 53°55' E 004°52'7 9.5
2016-Dec-04 07:28N 54°02' E 004°55'29911.1
2016-Dec-03 04:32N 59°00' E 005°18'3131.7
2016-Dec-03 03:34N 58°29' E 005°15'1010.0
2016-Dec-03 02:33N 58°39' E 005°16'1010.5
2016-Dec-03 01:34N 58°50' E 005°17'1010.0
2016-Dec-03 00:33N 58°60' E 005°18'9 9.1
2016-Dec-02 23:34N 59°07' E 005°27'1010.2
2016-Dec-02 22:34N 59°15' E 005°41'3231.3
2016-Dec-02 21:33N 59°39' E 006°22'0 0.0
2016-Dec-02 20:33N 59°39' E 006°22'0 0.0
2016-Dec-02 19:33N 59°39' E 006°22'0 0.0
2016-Dec-02 18:33N 59°39' E 006°22'0 0.0
2016-Dec-02 17:33N 59°39' E 006°22'0 0.0
2016-Dec-02 16:33N 59°39' E 006°22'0 0.0
2016-Dec-02 15:33N 59°39' E 006°22'0 0.0
2016-Dec-02 14:32N 59°39' E 006°22'0 0.0
2016-Dec-02 13:33N 59°39' E 006°22'0 0.0
2016-Dec-02 12:33N 59°39' E 006°22'0 0.0
2016-Dec-02 11:32N 59°39' E 006°22'8 8.3
2016-Dec-02 10:32N 59°31' E 006°16'4747.8
2016-Dec-02 09:33N 58°50' E 005°29'4 3.9
2016-Dec-02 08:32N 58°48' E 005°23'4 3.8
2016-Dec-02 07:33N 58°44' E 005°23'2323.4
2016-Dec-02 06:33N 59°07' E 005°33'10 9.8
2016-Dec-02 05:34N 58°57' E 005°33'7 7.3
2016-Dec-02 04:33N 58°50' E 005°28'5 5.2
2016-Dec-02 03:33N 58°45' E 005°23'6 6.1
2016-Dec-02 02:33N 58°40' E 005°27'7 6.7
2016-Dec-02 01:33N 58°34' E 005°33'7 6.5
2016-Dec-02 00:33N 58°29' E 005°41'7 7.4
2016-Dec-01 23:33N 58°24' E 005°51'7 7.5
2016-Dec-01 22:34N 58°19' E 006°03'8 7.5
2016-Dec-01 21:33N 58°15' E 006°15'7 7.5
2016-Dec-01 20:33N 58°12' E 006°28'10 9.4
2016-Dec-01 19:30N 58°14' E 006°46'4 4.7
2016-Dec-01 18:33N 58°16' E 006°53'5352.4
2016-Dec-01 17:31N 58°57' E 005°45'0 0.0
2016-Dec-01 16:33N 58°57' E 005°45'0 0.0
2016-Dec-01 15:33N 58°57' E 005°45'0 0.0
2016-Dec-01 14:33N 58°57' E 005°45'0 0.0
2016-Dec-01 13:30N 58°57' E 005°45'0 0.0
2016-Dec-01 12:31N 58°57' E 005°45'0 0.0
2016-Dec-01 11:30N 58°57' E 005°45'0 0.1
2016-Dec-01 10:33N 58°57' E 005°45'0 0.0
2016-Dec-01 09:33N 58°57' E 005°45'0 0.0
2016-Dec-01 08:33N 58°57' E 005°45'0 0.0
2016-Dec-01 07:31N 58°57' E 005°45'0 0.0
2016-Dec-01 06:33N 58°57' E 005°45'0 0.0
2016-Dec-01 05:33N 58°57' E 005°45'0 0.0
2016-Dec-01 04:32N 58°57' E 005°45'0 0.0
2016-Dec-01 03:32N 58°57' E 005°45'0 0.0
2016-Dec-01 02:33N 58°57' E 005°45'0 0.0
2016-Dec-01 01:33N 58°57' E 005°45'0 0.0
2016-Dec-01 00:33N 58°57' E 005°45'0 0.0
2016-Nov-30 23:32N 58°57' E 005°45'0 0.0
2016-Nov-30 22:30N 58°57' E 005°45'0 0.0
2016-Nov-30 21:31N 58°57' E 005°45'0 0.0
2016-Nov-30 20:32N 58°57' E 005°45'0 0.0
2016-Nov-30 19:31N 58°57' E 005°45'0 0.0
2016-Nov-30 18:31N 58°57' E 005°45'0 0.0
2016-Nov-30 17:33N 58°57' E 005°45'0 0.0
2016-Nov-30 16:33N 58°57' E 005°45'0 0.0
2016-Nov-30 15:27N 58°57' E 005°45'4347.4
2016-Nov-30 14:33N 58°17' E 006°15'10 9.6
2016-Nov-30 13:34N 58°20' E 005°58'1010.0
2016-Nov-30 12:34N 58°27' E 005°44'1010.1
2016-Nov-30 11:34N 58°35' E 005°32'10 9.9
2016-Nov-30 10:34N 58°44' E 005°24'8 8.3
2016-Nov-30 09:33N 58°52' E 005°30'1110.6
2016-Nov-30 08:33N 59°02' E 005°33'8 8.1
2016-Nov-30 07:33N 58°58' E 005°47'2 1.6
2016-Nov-30 06:33N 58°57' E 005°45'0 0.0
2016-Nov-30 05:33N 58°57' E 005°45'0 0.0
2016-Nov-30 04:33N 58°57' E 005°45'0 0.0
2016-Nov-30 03:33N 58°57' E 005°45'0 0.0
2016-Nov-30 02:33N 58°57' E 005°45'0 0.0
2016-Nov-30 01:33N 58°57' E 005°45'0 0.0
2016-Nov-30 00:33N 58°57' E 005°45'0 0.4
2016-Nov-29 23:33N 58°57' E 005°45'4 4.3
2016-Nov-29 22:32N 59°01' E 005°42'5 4.9
2016-Nov-29 21:33N 59°00' E 005°33'6 6.3
2016-Nov-29 20:33N 58°54' E 005°32'6 5.9
2016-Nov-29 19:32N 58°49' E 005°26'6 6.5
2016-Nov-29 18:33N 58°43' E 005°25'6 6.0
2016-Nov-29 17:33N 58°37' E 005°30'7 6.1
2016-Nov-29 16:26N 58°31' E 005°36'5 5.7
2016-Nov-29 15:33N 58°27' E 005°42'6 6.1
2016-Nov-29 14:33N 58°23' E 005°51'6 5.9
2016-Nov-29 13:33N 58°19' E 005°59'6 6.5
2016-Nov-29 12:33N 58°15' E 006°08'6 6.3
2016-Nov-29 11:33N 58°11' E 006°17'7 6.6
2016-Nov-29 10:33N 58°06' E 006°26'6 6.2
2016-Nov-29 09:33N 58°02' E 006°35'6 5.8
2016-Nov-29 08:33N 57°60' E 006°45'7 6.6
2016-Nov-29 07:33N 57°57' E 006°56'6 6.4
2016-Nov-29 06:33N 57°55' E 007°08'7 6.6
2016-Nov-29 05:33N 57°55' E 007°20'7 6.9
2016-Nov-29 04:33N 57°54' E 007°33'8 7.8
2016-Nov-29 03:33N 57°53' E 007°48'7 6.9
2016-Nov-29 02:33N 57°53' E 008°01'8 7.8
2016-Nov-29 01:33N 57°53' E 008°15'101101.0
2016-Nov-29 00:33N 58°57' E 005°45'0 0.0
2016-Nov-28 23:33N 58°57' E 005°45'0 0.0
2016-Nov-28 22:33N 58°57' E 005°45'0 0.1
2016-Nov-28 21:33N 58°57' E 005°45'0 0.1
2016-Nov-28 20:33N 58°57' E 005°45'0 0.0
2016-Nov-28 19:33N 58°57' E 005°45'0 0.0
2016-Nov-28 18:33N 58°57' E 005°45'0 0.0
2016-Nov-28 17:33N 58°57' E 005°45'0 0.0
2016-Nov-28 16:33N 58°57' E 005°45'0 0.0
2016-Nov-28 15:33N 58°57' E 005°45'0 0.0
2016-Nov-28 14:33N 58°57' E 005°45'0 0.0
2016-Nov-28 13:33N 58°57' E 005°45'0 0.0
2016-Nov-28 12:33N 58°57' E 005°45'0 0.0
2016-Nov-28 11:33N 58°57' E 005°45'0 0.0
2016-Nov-28 10:33N 58°57' E 005°45'0 0.0
2016-Nov-28 09:33N 58°57' E 005°45'0 0.0
2016-Nov-28 08:33N 58°57' E 005°45'0 0.2
2016-Nov-28 07:32N 58°57' E 005°45'0 0.0
2016-Nov-28 06:32N 58°57' E 005°45'0 0.0
2016-Nov-28 05:32N 58°57' E 005°45'0 0.0
2016-Nov-28 04:32N 58°57' E 005°45'0 0.0
2016-Nov-28 03:32N 58°57' E 005°45'0 0.0
2016-Nov-28 02:32N 58°57' E 005°45'0 0.0
2016-Nov-28 01:29N 58°57' E 005°45'0 0.0
2016-Nov-28 00:32N 58°57' E 005°45'0 0.0
2016-Nov-27 23:32N 58°57' E 005°45'0 0.0
2016-Nov-27 22:32N 58°57' E 005°45'0 0.0
2016-Nov-27 21:33N 58°57' E 005°45'3 3.5
2016-Nov-27 20:34N 59°00' E 005°46'7 6.7
2016-Nov-27 19:33N 59°00' E 005°33'9 9.3
2016-Nov-27 18:34N 58°51' E 005°30'8 8.2
2016-Nov-27 17:34N 58°43' E 005°24'9 8.7
2016-Nov-27 16:33N 58°36' E 005°31'9 8.6
2016-Nov-27 15:33N 58°28' E 005°40'9 9.0
2016-Nov-27 14:34N 58°22' E 005°53'9 9.2
2016-Nov-27 13:33N 58°16' E 006°06'9 9.4
2016-Nov-27 12:33N 58°10' E 006°19'9 9.3
2016-Nov-27 11:34N 58°03' E 006°32'9 8.7
2016-Nov-27 10:33N 57°59' E 006°47'10 9.5
2016-Nov-27 09:32N 57°56' E 007°04'9 9.5
2016-Nov-27 08:33N 57°55' E 007°21'93 9.3
2016-Nov-26 22:33N 57°50' E 010°16'7 7.4
2016-Nov-26 21:33N 57°49' E 010°30'7 7.2
2016-Nov-26 20:34N 57°49' E 010°43'7 7.4
2016-Nov-26 19:34N 57°44' E 010°54'8 8.4
2016-Nov-26 18:34N 57°38' E 011°05'8 8.3
2016-Nov-26 17:34N 57°33' E 011°17'8 8.0
2016-Nov-26 16:34N 57°27' E 011°27'8 8.2
2016-Nov-26 15:34N 57°19' E 011°32'8 8.3
2016-Nov-26 14:33N 57°11' E 011°37'7 7.5
2016-Nov-26 13:33N 57°04' E 011°42'8 7.2
2016-Nov-26 12:29N 56°57' E 011°47'7 7.3
2016-Nov-26 11:28N 56°50' E 011°52'8 7.9
2016-Nov-26 10:29N 56°43' E 011°56'8 8.6
2016-Nov-26 09:33N 56°35' E 011°59'9 8.7
2016-Nov-26 08:33N 56°27' E 012°05'9 8.5
2016-Nov-26 07:31N 56°20' E 012°15'8 8.3
2016-Nov-26 06:33N 56°14' E 012°24'8 8.1
2016-Nov-26 05:33N 56°07' E 012°33'7 7.2
2016-Nov-26 04:33N 56°02' E 012°41'8 8.2
2016-Nov-26 03:33N 55°54' E 012°45'9 9.2
2016-Nov-26 02:33N 55°45' E 012°42'8 8.3
2016-Nov-26 01:33N 55°36' E 012°42'8 8.3
2016-Nov-26 00:34N 55°28' E 012°42'9 9.4
2016-Nov-25 23:33N 55°19' E 012°42'9 9.0
2016-Nov-25 22:33N 55°15' E 012°56'10 9.3
2016-Nov-25 21:31N 55°09' E 013°09'  
Track history (hours):
 
Tides and Currents Weather Stations Pressure Air Temp Water Temp Dewpoint Dewpoint Depression Visibility Wind Speed Wind Dir Waves Ship Positions

Wilson Algeciras

Last reported at 2016-Dec-05 12:33 UTC. Time now 2016-Dec-05 12:35 UTC.
Position N 51°27' E 003°42'.

Length 88 m; draft 4.7 m.

Type: Ship. MMSI: 248689000.

Date/timePositionNaut miles runAvg speedWind from/ knotsBaromVisibWave heightAir tempDewpointWater temp
2016-Dec-05 12:33N 51°27' E 003°42'0 0.0
2016-Dec-05 11:33N 51°27' E 003°42'0 0.0
2016-Dec-05 10:34N 51°27' E 003°42'0 0.0
2016-Dec-05 09:34N 51°27' E 003°42'0 0.0
2016-Dec-05 08:34N 51°27' E 003°42'0 0.0
2016-Dec-05 07:34N 51°27' E 003°42'0 0.0
2016-Dec-05 06:34N 51°27' E 003°42'0 0.0
2016-Dec-05 05:34N 51°27' E 003°42'0 0.0
2016-Dec-05 04:33N 51°27' E 003°42'0 0.0
2016-Dec-05 03:34N 51°27' E 003°42'0 0.0
2016-Dec-05 02:34N 51°27' E 003°42'5 4.7
2016-Dec-05 01:33N 51°26' E 003°35'1110.6
2016-Dec-05 00:34N 51°34' E 003°24'1010.0
2016-Dec-04 23:34N 51°43' E 003°16'9 9.1
2016-Dec-04 22:33N 51°52' E 003°17'1110.5
2016-Dec-04 21:33N 52°03' E 003°20'9 9.6
2016-Dec-04 20:33N 52°12' E 003°24'9 9.2
2016-Dec-04 19:31N 52°20' E 003°30'8 8.7
2016-Dec-04 18:33N 52°28' E 003°34'8 8.3
2016-Dec-04 17:34N 52°36' E 003°39'9 8.3
2016-Dec-04 16:32N 52°44' E 003°43'9 9.1
2016-Dec-04 15:32N 52°52' E 003°52'1110.3
2016-Dec-04 14:28N 52°59' E 004°04'1010.7
2016-Dec-04 13:33N 53°06' E 004°16'1110.5
2016-Dec-04 12:28N 53°16' E 004°27'1010.5
2016-Dec-04 11:31N 53°25' E 004°32'32 9.6
2016-Dec-04 08:09N 53°55' E 004°52'7 9.5
2016-Dec-04 07:28N 54°02' E 004°55'29911.1
2016-Dec-03 04:32N 59°00' E 005°18'3131.7
2016-Dec-03 03:34N 58°29' E 005°15'1010.0
2016-Dec-03 02:33N 58°39' E 005°16'1010.5
2016-Dec-03 01:34N 58°50' E 005°17'1010.0
2016-Dec-03 00:33N 58°60' E 005°18'9 9.1
2016-Dec-02 23:34N 59°07' E 005°27'1010.2
2016-Dec-02 22:34N 59°15' E 005°41'3231.3
2016-Dec-02 21:33N 59°39' E 006°22'0 0.0
2016-Dec-02 20:33N 59°39' E 006°22'0 0.0
2016-Dec-02 19:33N 59°39' E 006°22'0 0.0
2016-Dec-02 18:33N 59°39' E 006°22'0 0.0
2016-Dec-02 17:33N 59°39' E 006°22'0 0.0
2016-Dec-02 16:33N 59°39' E 006°22'0 0.0
2016-Dec-02 15:33N 59°39' E 006°22'0 0.0
2016-Dec-02 14:32N 59°39' E 006°22'0 0.0
2016-Dec-02 13:33N 59°39' E 006°22'0 0.0
2016-Dec-02 12:33N 59°39' E 006°22'0 0.0
2016-Dec-02 11:32N 59°39' E 006°22'8 8.3
2016-Dec-02 10:32N 59°31' E 006°16'4747.8
2016-Dec-02 09:33N 58°50' E 005°29'4 3.9
2016-Dec-02 08:32N 58°48' E 005°23'4 3.8
2016-Dec-02 07:33N 58°44' E 005°23'2323.4
2016-Dec-02 06:33N 59°07' E 005°33'10 9.8
2016-Dec-02 05:34N 58°57' E 005°33'7 7.3
2016-Dec-02 04:33N 58°50' E 005°28'5 5.2
2016-Dec-02 03:33N 58°45' E 005°23'6 6.1
2016-Dec-02 02:33N 58°40' E 005°27'7 6.7
2016-Dec-02 01:33N 58°34' E 005°33'7 6.5
2016-Dec-02 00:33N 58°29' E 005°41'7 7.4
2016-Dec-01 23:33N 58°24' E 005°51'7 7.5
2016-Dec-01 22:34N 58°19' E 006°03'8 7.5
2016-Dec-01 21:33N 58°15' E 006°15'7 7.5
2016-Dec-01 20:33N 58°12' E 006°28'10 9.4
2016-Dec-01 19:30N 58°14' E 006°46'4 4.7
2016-Dec-01 18:33N 58°16' E 006°53'5352.4
2016-Dec-01 17:31N 58°57' E 005°45'0 0.0
2016-Dec-01 16:33N 58°57' E 005°45'0 0.0
2016-Dec-01 15:33N 58°57' E 005°45'0 0.0
2016-Dec-01 14:33N 58°57' E 005°45'0 0.0
2016-Dec-01 13:30N 58°57' E 005°45'0 0.0
2016-Dec-01 12:31N 58°57' E 005°45'0 0.0
2016-Dec-01 11:30N 58°57' E 005°45'0 0.1
2016-Dec-01 10:33N 58°57' E 005°45'0 0.0
2016-Dec-01 09:33N 58°57' E 005°45'0 0.0
2016-Dec-01 08:33N 58°57' E 005°45'0 0.0
2016-Dec-01 07:31N 58°57' E 005°45'0 0.0
2016-Dec-01 06:33N 58°57' E 005°45'0 0.0
2016-Dec-01 05:33N 58°57' E 005°45'0 0.0
2016-Dec-01 04:32N 58°57' E 005°45'0 0.0
2016-Dec-01 03:32N 58°57' E 005°45'0 0.0
2016-Dec-01 02:33N 58°57' E 005°45'0 0.0
2016-Dec-01 01:33N 58°57' E 005°45'0 0.0
2016-Dec-01 00:33N 58°57' E 005°45'0 0.0
2016-Nov-30 23:32N 58°57' E 005°45'0 0.0
2016-Nov-30 22:30N 58°57' E 005°45'0 0.0
2016-Nov-30 21:31N 58°57' E 005°45'0 0.0
2016-Nov-30 20:32N 58°57' E 005°45'0 0.0
2016-Nov-30 19:31N 58°57' E 005°45'0 0.0
2016-Nov-30 18:31N 58°57' E 005°45'0 0.0
2016-Nov-30 17:33N 58°57' E 005°45'0 0.0
2016-Nov-30 16:33N 58°57' E 005°45'0 0.0
2016-Nov-30 15:27N 58°57' E 005°45'4347.4
2016-Nov-30 14:33N 58°17' E 006°15'10 9.6
2016-Nov-30 13:34N 58°20' E 005°58'1010.0
2016-Nov-30 12:34N 58°27' E 005°44'1010.1
2016-Nov-30 11:34N 58°35' E 005°32'10 9.9
2016-Nov-30 10:34N 58°44' E 005°24'8 8.3
2016-Nov-30 09:33N 58°52' E 005°30'1110.6
2016-Nov-30 08:33N 59°02' E 005°33'8 8.1
2016-Nov-30 07:33N 58°58' E 005°47'2 1.6
2016-Nov-30 06:33N 58°57' E 005°45'0 0.0
2016-Nov-30 05:33N 58°57' E 005°45'0 0.0
2016-Nov-30 04:33N 58°57' E 005°45'0 0.0
2016-Nov-30 03:33N 58°57' E 005°45'0 0.0
2016-Nov-30 02:33N 58°57' E 005°45'0 0.0
2016-Nov-30 01:33N 58°57' E 005°45'0 0.0
2016-Nov-30 00:33N 58°57' E 005°45'0 0.4
2016-Nov-29 23:33N 58°57' E 005°45'4 4.3
2016-Nov-29 22:32N 59°01' E 005°42'5 4.9
2016-Nov-29 21:33N 59°00' E 005°33'6 6.3
2016-Nov-29 20:33N 58°54' E 005°32'6 5.9
2016-Nov-29 19:32N 58°49' E 005°26'6 6.5
2016-Nov-29 18:33N 58°43' E 005°25'6 6.0
2016-Nov-29 17:33N 58°37' E 005°30'7 6.1
2016-Nov-29 16:26N 58°31' E 005°36'5 5.7
2016-Nov-29 15:33N 58°27' E 005°42'6 6.1
2016-Nov-29 14:33N 58°23' E 005°51'6 5.9
2016-Nov-29 13:33N 58°19' E 005°59'6 6.5
2016-Nov-29 12:33N 58°15' E 006°08'6 6.3
2016-Nov-29 11:33N 58°11' E 006°17'7 6.6
2016-Nov-29 10:33N 58°06' E 006°26'6 6.2
2016-Nov-29 09:33N 58°02' E 006°35'6 5.8
2016-Nov-29 08:33N 57°60' E 006°45'7 6.6
2016-Nov-29 07:33N 57°57' E 006°56'6 6.4
2016-Nov-29 06:33N 57°55' E 007°08'7 6.6
2016-Nov-29 05:33N 57°55' E 007°20'7 6.9
2016-Nov-29 04:33N 57°54' E 007°33'8 7.8
2016-Nov-29 03:33N 57°53' E 007°48'7 6.9
2016-Nov-29 02:33N 57°53' E 008°01'8 7.8
2016-Nov-29 01:33N 57°53' E 008°15'101101.0
2016-Nov-29 00:33N 58°57' E 005°45'0 0.0
2016-Nov-28 23:33N 58°57' E 005°45'0 0.0
2016-Nov-28 22:33N 58°57' E 005°45'0 0.1
2016-Nov-28 21:33N 58°57' E 005°45'0 0.1
2016-Nov-28 20:33N 58°57' E 005°45'0 0.0
2016-Nov-28 19:33N 58°57' E 005°45'0 0.0
2016-Nov-28 18:33N 58°57' E 005°45'0 0.0
2016-Nov-28 17:33N 58°57' E 005°45'0 0.0
2016-Nov-28 16:33N 58°57' E 005°45'0 0.0
2016-Nov-28 15:33N 58°57' E 005°45'0 0.0
2016-Nov-28 14:33N 58°57' E 005°45'0 0.0
2016-Nov-28 13:33N 58°57' E 005°45'0 0.0
2016-Nov-28 12:33N 58°57' E 005°45'0 0.0
2016-Nov-28 11:33N 58°57' E 005°45'0 0.0
2016-Nov-28 10:33N 58°57' E 005°45'0 0.0
2016-Nov-28 09:33N 58°57' E 005°45'0 0.0
2016-Nov-28 08:33N 58°57' E 005°45'0 0.2
2016-Nov-28 07:32N 58°57' E 005°45'0 0.0
2016-Nov-28 06:32N 58°57' E 005°45'0 0.0
2016-Nov-28 05:32N 58°57' E 005°45'0 0.0
2016-Nov-28 04:32N 58°57' E 005°45'0 0.0
2016-Nov-28 03:32N 58°57' E 005°45'0 0.0
2016-Nov-28 02:32N 58°57' E 005°45'0 0.0
2016-Nov-28 01:29N 58°57' E 005°45'0 0.0
2016-Nov-28 00:32N 58°57' E 005°45'0 0.0
2016-Nov-27 23:32N 58°57' E 005°45'0 0.0
2016-Nov-27 22:32N 58°57' E 005°45'0 0.0
2016-Nov-27 21:33N 58°57' E 005°45'3 3.5
2016-Nov-27 20:34N 59°00' E 005°46'7 6.7
2016-Nov-27 19:33N 59°00' E 005°33'9 9.3
2016-Nov-27 18:34N 58°51' E 005°30'8 8.2
2016-Nov-27 17:34N 58°43' E 005°24'9 8.7
2016-Nov-27 16:33N 58°36' E 005°31'9 8.6
2016-Nov-27 15:33N 58°28' E 005°40'9 9.0
2016-Nov-27 14:34N 58°22' E 005°53'9 9.2
2016-Nov-27 13:33N 58°16' E 006°06'9 9.4
2016-Nov-27 12:33N 58°10' E 006°19'9 9.3
2016-Nov-27 11:34N 58°03' E 006°32'9 8.7
2016-Nov-27 10:33N 57°59' E 006°47'10 9.5
2016-Nov-27 09:32N 57°56' E 007°04'9 9.5
2016-Nov-27 08:33N 57°55' E 007°21'93 9.3
2016-Nov-26 22:33N 57°50' E 010°16'7 7.4
2016-Nov-26 21:33N 57°49' E 010°30'7 7.2
2016-Nov-26 20:34N 57°49' E 010°43'7 7.4
2016-Nov-26 19:34N 57°44' E 010°54'8 8.4
2016-Nov-26 18:34N 57°38' E 011°05'8 8.3
2016-Nov-26 17:34N 57°33' E 011°17'8 8.0
2016-Nov-26 16:34N 57°27' E 011°27'8 8.2
2016-Nov-26 15:34N 57°19' E 011°32'8 8.3
2016-Nov-26 14:33N 57°11' E 011°37'7 7.5
2016-Nov-26 13:33N 57°04' E 011°42'8 7.2
2016-Nov-26 12:29N 56°57' E 011°47'7 7.3
2016-Nov-26 11:28N 56°50' E 011°52'8 7.9
2016-Nov-26 10:29N 56°43' E 011°56'8 8.6
2016-Nov-26 09:33N 56°35' E 011°59'9 8.7
2016-Nov-26 08:33N 56°27' E 012°05'9 8.5
2016-Nov-26 07:31N 56°20' E 012°15'8 8.3
2016-Nov-26 06:33N 56°14' E 012°24'8 8.1
2016-Nov-26 05:33N 56°07' E 012°33'7 7.2
2016-Nov-26 04:33N 56°02' E 012°41'8 8.2
2016-Nov-26 03:33N 55°54' E 012°45'9 9.2
2016-Nov-26 02:33N 55°45' E 012°42'8 8.3
2016-Nov-26 01:33N 55°36' E 012°42'8 8.3
2016-Nov-26 00:34N 55°28' E 012°42'9 9.4
2016-Nov-25 23:33N 55°19' E 012°42'9 9.0
2016-Nov-25 22:33N 55°15' E 012°56'10 9.3
2016-Nov-25 21:31N 55°09' E 013°09'  

Dump ship's entire track history